SWA3536 KOAK-KLAS
Flight info
| Callsign | SWA3536 |
|---|---|
| Flight time | N/A |
| Altitude | 35000 |
| Route | CNDEL5 NTELL Q174 FLCHR COKTL4 |
| Aircraft | B38M/M-SDE1FGHILORVWXY/HB1 |
Departure
| Time | 2026-05-06 15:32 |
|---|---|
| Airport | San Francisco Bay Oakland International Airport (KOAK) |
Arrival
| Time | N/A |
|---|---|
| Airport | Harry Reid International Airport (KLAS) |
| Time | Latitude | Longitude | Altitude | Speed | Heading |
|---|---|---|---|---|---|
| 2026-05-06 15:12 | 37.70985 | -122.21279 | 11 ft | 0 kts | 128° |
| 2026-05-06 15:24 | 37.70988 | -122.21283 | 11 ft | 4 kts | 129° |
| 2026-05-06 15:24 | 37.71006 | -122.21308 | 13 ft | 4 kts | 142° |
| 2026-05-06 15:24 | 37.71028 | -122.21320 | 13 ft | 4 kts | 187° |
| 2026-05-06 15:24 | 37.71037 | -122.21314 | 13 ft | 1 kts | 264° |
| 2026-05-06 15:25 | 37.71037 | -122.21308 | 13 ft | 0 kts | 264° |
| 2026-05-06 15:27 | 37.71037 | -122.21310 | 13 ft | 1 kts | 264° |
| 2026-05-06 15:28 | 37.71036 | -122.21317 | 12 ft | 0 kts | 262° |
| 2026-05-06 15:28 | 37.71036 | -122.21314 | 12 ft | 1 kts | 262° |
| 2026-05-06 15:28 | 37.71016 | -122.21369 | 11 ft | 11 kts | 224° |
| 2026-05-06 15:28 | 37.70945 | -122.21437 | 12 ft | 14 kts | 217° |
| 2026-05-06 15:29 | 37.70869 | -122.21528 | 11 ft | 16 kts | 251° |
| 2026-05-06 15:29 | 37.70820 | -122.21645 | 11 ft | 17 kts | 221° |
| 2026-05-06 15:29 | 37.70722 | -122.21753 | 12 ft | 19 kts | 221° |
| 2026-05-06 15:29 | 37.70652 | -122.21801 | 12 ft | 7 kts | 167° |
| 2026-05-06 15:30 | 37.70613 | -122.21747 | 12 ft | 12 kts | 129° |
| 2026-05-06 15:30 | 37.70533 | -122.21626 | 12 ft | 24 kts | 130° |
| 2026-05-06 15:30 | 37.70414 | -122.21449 | 11 ft | 23 kts | 134° |
| 2026-05-06 15:30 | 37.70353 | -122.21450 | 13 ft | 10 kts | 215° |
| 2026-05-06 15:31 | 37.70270 | -122.21543 | 12 ft | 16 kts | 231° |
| 2026-05-06 15:31 | 37.70285 | -122.21636 | 10 ft | 13 kts | 310° |
| 2026-05-06 15:31 | 37.70391 | -122.21789 | 12 ft | 57 kts | 310° |
| 2026-05-06 15:32 | 37.71608 | -122.23626 | 213 ft | 200 kts | 310° |
| 2026-05-06 15:32 | 37.72528 | -122.25024 | 1083 ft | 220 kts | 309° |
| 2026-05-06 15:32 | 37.73449 | -122.26413 | 1614 ft | 187 kts | 309° |
| 2026-05-06 15:32 | 37.74304 | -122.27692 | 1709 ft | 199 kts | 309° |
| 2026-05-06 15:33 | 37.75238 | -122.29079 | 1880 ft | 217 kts | 310° |
| 2026-05-06 15:33 | 37.76274 | -122.30616 | 2130 ft | 239 kts | 309° |
| 2026-05-06 15:33 | 37.77382 | -122.32266 | 3110 ft | 255 kts | 311° |
| 2026-05-06 15:33 | 37.78535 | -122.34032 | 4199 ft | 262 kts | 306° |
| 2026-05-06 15:34 | 37.79263 | -122.36105 | 5429 ft | 268 kts | 282° |
| 2026-05-06 15:34 | 37.79140 | -122.38478 | 6498 ft | 279 kts | 253° |
| 2026-05-06 15:34 | 37.78116 | -122.40589 | 7543 ft | 289 kts | 226° |
| 2026-05-06 15:34 | 37.76388 | -122.41887 | 8616 ft | 294 kts | 195° |
| 2026-05-06 15:35 | 37.74341 | -122.42143 | 9554 ft | 304 kts | 182° |
| 2026-05-06 15:35 | 37.72264 | -122.42537 | 9594 ft | 299 kts | 191° |
| 2026-05-06 15:35 | 37.70209 | -122.43038 | 9820 ft | 301 kts | 190° |
| 2026-05-06 15:35 | 37.68143 | -122.43503 | 9945 ft | 302 kts | 189° |
| 2026-05-06 15:36 | 37.66082 | -122.43954 | 9984 ft | 299 kts | 190° |
| 2026-05-06 15:36 | 37.64037 | -122.44380 | 9907 ft | 298 kts | 189° |
| 2026-05-06 15:36 | 37.62005 | -122.44801 | 9974 ft | 301 kts | 189° |
| 2026-05-06 15:36 | 37.59937 | -122.45226 | 9998 ft | 303 kts | 189° |
| 2026-05-06 15:37 | 37.57814 | -122.45667 | 10422 ft | 316 kts | 189° |
| 2026-05-06 15:37 | 37.55575 | -122.46128 | 11025 ft | 335 kts | 189° |
| 2026-05-06 15:37 | 37.53217 | -122.46608 | 11577 ft | 352 kts | 188° |
| 2026-05-06 15:37 | 37.50749 | -122.46591 | 12248 ft | 361 kts | 167° |
| 2026-05-06 15:38 | 37.48441 | -122.45413 | 13150 ft | 360 kts | 145° |
| 2026-05-06 15:38 | 37.46601 | -122.43283 | 13928 ft | 362 kts | 125° |
| 2026-05-06 15:38 | 37.45135 | -122.40737 | 14670 ft | 366 kts | 124° |
| 2026-05-06 15:38 | 37.43622 | -122.38139 | 15408 ft | 371 kts | 123° |
| 2026-05-06 15:39 | 37.42100 | -122.35497 | 16139 ft | 375 kts | 121° |
| 2026-05-06 15:39 | 37.40997 | -122.32550 | 16859 ft | 372 kts | 103° |
| 2026-05-06 15:39 | 37.40330 | -122.29396 | 17536 ft | 377 kts | 102° |
| 2026-05-06 15:39 | 37.39665 | -122.26190 | 18240 ft | 381 kts | 101° |
| 2026-05-06 15:40 | 37.39007 | -122.22950 | 18885 ft | 385 kts | 101° |
| 2026-05-06 15:40 | 37.38350 | -122.19675 | 19496 ft | 388 kts | 101° |
| 2026-05-06 15:40 | 37.38227 | -122.19062 | 19613 ft | 388 kts | 101° |